createdAt,value
2023-01-17T00:00:33.033Z,988.416244144
2023-01-17T00:01:32.416Z,988.416244144
2023-01-17T00:02:32.668Z,988.416244144
2023-01-17T00:03:32.540Z,988.416244144
2023-01-17T00:04:32.382Z,988.3146527799998
2023-01-17T00:05:32.403Z,988.416244144
2023-01-17T00:06:32.561Z,988.517835508
2023-01-17T00:07:32.430Z,988.416244144
2023-01-17T00:08:32.425Z,988.416244144
2023-01-17T00:09:32.437Z,988.517835508
2023-01-17T00:10:32.418Z,988.416244144
2023-01-17T00:11:32.430Z,988.517835508
2023-01-17T00:12:32.396Z,988.416244144
2023-01-17T00:13:32.412Z,988.3146527799998
2023-01-17T00:14:32.433Z,988.416244144
2023-01-17T00:15:32.424Z,988.3146527799998
2023-01-17T00:16:32.417Z,988.517835508
2023-01-17T00:17:32.394Z,988.3146527799998
2023-01-17T00:18:32.447Z,988.517835508
2023-01-17T00:19:32.453Z,988.416244144
2023-01-17T00:20:32.428Z,988.416244144
2023-01-17T00:21:32.407Z,988.416244144
2023-01-17T00:22:32.903Z,988.416244144
2023-01-17T00:23:32.395Z,988.416244144
2023-01-17T00:24:32.435Z,988.416244144
2023-01-17T00:25:32.411Z,988.213061416
2023-01-17T00:26:32.426Z,988.111470052
2023-01-17T00:27:32.422Z,988.517835508
2023-01-17T00:28:32.454Z,988.213061416
2023-01-17T00:29:32.410Z,988.111470052
2023-01-17T00:30:32.395Z,988.111470052
2023-01-17T00:31:32.466Z,988.111470052
2023-01-17T00:32:32.436Z,988.213061416
2023-01-17T00:33:32.477Z,988.0098786879998
2023-01-17T00:34:32.392Z,988.213061416
2023-01-17T00:35:32.365Z,988.3146527799998
2023-01-17T00:36:32.729Z,988.111470052
2023-01-17T00:37:32.415Z,988.3146527799998
2023-01-17T00:38:32.421Z,988.213061416
2023-01-17T00:39:32.399Z,988.111470052
2023-01-17T00:40:32.401Z,988.3146527799998
2023-01-17T00:41:32.409Z,988.416244144
2023-01-17T00:42:32.719Z,988.111470052
2023-01-17T00:43:32.412Z,988.3146527799998
2023-01-17T00:44:32.401Z,988.213061416
2023-01-17T00:45:32.464Z,988.3146527799998
2023-01-17T00:46:32.530Z,988.416244144
2023-01-17T00:47:32.385Z,988.517835508
2023-01-17T00:48:32.427Z,988.3146527799998
2023-01-17T00:49:32.507Z,988.416244144
2023-01-17T00:50:32.417Z,988.213061416
2023-01-17T00:51:32.416Z,988.3146527799998
2023-01-17T00:52:32.426Z,988.517835508
2023-01-17T00:53:32.398Z,988.416244144
2023-01-17T00:54:32.432Z,988.517835508
2023-01-17T00:55:32.407Z,988.3146527799998
2023-01-17T00:56:32.406Z,988.416244144
2023-01-17T00:57:32.422Z,988.213061416
2023-01-17T00:58:32.394Z,988.213061416
2023-01-17T00:59:32.408Z,988.416244144
2023-01-17T01:00:32.759Z,988.416244144
2023-01-17T01:01:32.507Z,988.3146527799998
2023-01-17T01:02:33.282Z,988.3146527799998
2023-01-17T01:03:32.407Z,988.3146527799998
2023-01-17T01:04:32.391Z,988.3146527799998
2023-01-17T01:05:32.396Z,988.213061416
2023-01-17T01:06:32.403Z,988.416244144
2023-01-17T01:07:32.345Z,988.3146527799998
2023-01-17T01:08:32.423Z,988.111470052
2023-01-17T01:09:32.417Z,988.3146527799998
2023-01-17T01:10:32.412Z,988.3146527799998
2023-01-17T01:11:32.357Z,988.213061416
2023-01-17T01:12:32.402Z,988.213061416
2023-01-17T01:13:32.382Z,988.213061416
2023-01-17T01:14:32.468Z,988.213061416
2023-01-17T01:15:32.395Z,988.517835508
2023-01-17T01:16:32.492Z,988.3146527799998
2023-01-17T01:17:32.384Z,988.3146527799998
2023-01-17T01:18:32.421Z,988.3146527799998
2023-01-17T01:19:32.394Z,988.517835508
2023-01-17T01:20:32.413Z,988.416244144
2023-01-17T01:21:32.366Z,988.213061416
2023-01-17T01:22:32.871Z,988.416244144
2023-01-17T01:23:32.340Z,988.213061416
2023-01-17T01:24:32.392Z,988.416244144
2023-01-17T01:25:32.414Z,988.111470052
2023-01-17T01:26:32.399Z,988.0098786879998
2023-01-17T01:27:32.346Z,988.213061416
2023-01-17T01:28:32.426Z,988.111470052
2023-01-17T01:29:32.397Z,988.111470052
2023-01-17T01:30:32.410Z,987.8066959600001
2023-01-17T01:31:32.418Z,988.111470052
2023-01-17T01:32:32.402Z,988.0098786879998
2023-01-17T01:33:32.376Z,988.111470052
2023-01-17T01:34:32.422Z,987.8066959600001
2023-01-17T01:35:32.375Z,987.908287324
2023-01-17T01:36:32.443Z,988.0098786879998
2023-01-17T01:37:32.449Z,987.908287324
2023-01-17T01:38:32.393Z,988.0098786879998
2023-01-17T01:39:32.353Z,987.7389683839999
2023-01-17T01:40:32.602Z,987.8066959600001
2023-01-17T01:41:32.479Z,988.0098786879998
2023-01-17T01:42:32.507Z,987.908287324
2023-01-17T01:43:32.503Z,987.8066959600001
2023-01-17T01:44:32.523Z,988.0098786879998
2023-01-17T01:45:32.612Z,987.908287324
2023-01-17T01:46:32.562Z,987.908287324
2023-01-17T01:47:32.514Z,987.63737702
2023-01-17T01:48:32.515Z,987.8066959600001
2023-01-17T01:49:32.494Z,987.7389683839999
2023-01-17T01:50:32.612Z,987.8066959600001
2023-01-17T01:51:32.459Z,987.7389683839999
2023-01-17T01:52:32.517Z,987.908287324
2023-01-17T01:53:32.541Z,987.8066959600001
2023-01-17T01:54:32.572Z,987.63737702
2023-01-17T01:55:32.362Z,987.8066959600001
2023-01-17T01:56:32.410Z,987.8066959600001
2023-01-17T01:57:32.457Z,987.8066959600001
2023-01-17T01:58:32.396Z,987.7389683839999
2023-01-17T01:59:32.314Z,987.908287324
2023-01-17T02:00:32.406Z,987.7389683839999
2023-01-17T02:01:32.549Z,987.8066959600001
2023-01-17T02:02:33.108Z,987.7389683839999
2023-01-17T02:03:32.432Z,987.63737702
2023-01-17T02:04:32.419Z,987.8066959600001
2023-01-17T02:05:32.418Z,987.8066959600001
2023-01-17T02:06:32.394Z,987.7389683839999
2023-01-17T02:07:32.348Z,987.7389683839999
2023-01-17T02:08:32.415Z,987.7389683839999
2023-01-17T02:09:32.410Z,987.7389683839999
2023-01-17T02:10:32.507Z,987.63737702
2023-01-17T02:11:32.290Z,987.63737702
2023-01-17T02:12:33.110Z,987.7389683839999
2023-01-17T02:13:32.408Z,987.8066959600001
2023-01-17T02:14:32.411Z,987.7389683839999
2023-01-17T02:15:32.306Z,987.63737702
2023-01-17T02:16:32.511Z,987.8066959600001
2023-01-17T02:17:32.412Z,987.8066959600001
2023-01-17T02:18:32.437Z,987.7389683839999
2023-01-17T02:19:32.317Z,987.63737702
2023-01-17T02:20:32.403Z,987.7389683839999
2023-01-17T02:21:32.430Z,987.7389683839999
2023-01-17T02:22:33.076Z,987.7389683839999
2023-01-17T02:23:32.340Z,987.63737702
2023-01-17T02:24:32.400Z,987.63737702
2023-01-17T02:25:32.388Z,987.332602928
2023-01-17T02:26:32.388Z,987.5357856559999
2023-01-17T02:27:32.353Z,987.63737702
2023-01-17T02:28:32.400Z,987.5357856559999
2023-01-17T02:29:32.388Z,987.332602928
2023-01-17T02:30:32.384Z,987.63737702
2023-01-17T02:31:32.338Z,987.5357856559999
2023-01-17T02:32:33.145Z,987.332602928
2023-01-17T02:33:32.417Z,987.4341942919999
2023-01-17T02:34:32.388Z,987.2310115639999
2023-01-17T02:35:32.326Z,987.1294201999999
2023-01-17T02:36:32.399Z,987.2310115639999
2023-01-17T02:37:32.379Z,987.2310115639999
2023-01-17T02:38:32.469Z,987.2310115639999
2023-01-17T02:39:32.365Z,987.332602928
2023-01-17T02:40:32.389Z,987.332602928
2023-01-17T02:41:32.381Z,987.5357856559999
2023-01-17T02:42:33.143Z,987.1294201999999
2023-01-17T02:43:32.281Z,987.2310115639999
2023-01-17T02:44:32.481Z,987.4341942919999
2023-01-17T02:45:32.465Z,987.332602928
2023-01-17T02:46:32.369Z,987.5357856559999
2023-01-17T02:47:32.299Z,987.332602928
2023-01-17T02:48:32.421Z,987.2310115639999
2023-01-17T02:49:32.416Z,987.332602928
2023-01-17T02:50:32.424Z,987.4341942919999
2023-01-17T02:51:32.305Z,987.4341942919999
2023-01-17T02:52:33.111Z,987.2310115639999
2023-01-17T02:53:32.408Z,987.4341942919999
2023-01-17T02:54:32.373Z,987.332602928
2023-01-17T02:55:32.314Z,987.63737702
2023-01-17T02:56:32.678Z,987.4341942919999
2023-01-17T02:57:32.378Z,987.4341942919999
2023-01-17T02:58:32.360Z,987.4341942919999
2023-01-17T02:59:32.294Z,987.5357856559999
2023-01-17T03:00:32.478Z,987.332602928
2023-01-17T03:01:32.513Z,987.332602928
2023-01-17T03:02:33.205Z,987.2310115639999
2023-01-17T03:03:32.288Z,987.1294201999999
2023-01-17T03:04:32.533Z,987.2310115639999
2023-01-17T03:05:32.410Z,987.332602928
2023-01-17T03:06:32.398Z,987.2310115639999
2023-01-17T03:07:32.305Z,987.4341942919999
2023-01-17T03:08:32.424Z,987.2310115639999
2023-01-17T03:09:32.412Z,987.5357856559999
2023-01-17T03:10:32.381Z,987.332602928
2023-01-17T03:11:32.319Z,987.332602928
2023-01-17T03:12:33.339Z,987.4341942919999
2023-01-17T03:13:32.388Z,987.332602928
2023-01-17T03:14:32.583Z,987.332602928
2023-01-17T03:15:32.252Z,987.4341942919999
2023-01-17T03:16:32.621Z,987.5357856559999
2023-01-17T03:17:32.527Z,987.5357856559999
2023-01-17T03:18:32.483Z,987.5357856559999
2023-01-17T03:19:32.294Z,987.4341942919999
2023-01-17T03:20:32.535Z,987.5357856559999
2023-01-17T03:21:32.384Z,987.4341942919999
2023-01-17T03:22:32.754Z,987.4341942919999
2023-01-17T03:23:32.297Z,987.5357856559999
2023-01-17T03:24:32.540Z,987.2310115639999
2023-01-17T03:25:32.406Z,987.4341942919999
2023-01-17T03:26:32.438Z,987.5357856559999
2023-01-17T03:27:32.461Z,987.4341942919999
2023-01-17T03:28:32.524Z,987.332602928
2023-01-17T03:29:32.497Z,987.332602928
2023-01-17T03:30:32.555Z,987.5357856559999
2023-01-17T03:31:32.293Z,987.63737702
2023-01-17T03:32:33.256Z,987.2310115639999
2023-01-17T03:33:32.401Z,987.332602928
2023-01-17T03:34:32.404Z,987.332602928
2023-01-17T03:35:32.250Z,987.2310115639999
2023-01-17T03:36:32.491Z,987.4341942919999
2023-01-17T03:37:32.524Z,987.4341942919999
2023-01-17T03:38:32.526Z,987.332602928
2023-01-17T03:39:32.283Z,987.332602928
2023-01-17T03:40:32.524Z,987.1294201999999
2023-01-17T03:41:32.509Z,987.332602928
2023-01-17T03:42:32.540Z,987.332602928
2023-01-17T03:43:32.304Z,987.332602928
2023-01-17T03:44:32.504Z,987.4341942919999
2023-01-17T03:45:32.598Z,987.2310115639999
2023-01-17T03:46:32.413Z,987.2310115639999
2023-01-17T03:47:32.407Z,987.332602928
2023-01-17T03:48:32.481Z,987.5357856559999
2023-01-17T03:49:32.471Z,987.332602928
2023-01-17T03:50:32.499Z,987.4341942919999
2023-01-17T03:51:32.248Z,987.4341942919999
2023-01-17T03:52:32.416Z,987.332602928
2023-01-17T03:53:32.467Z,987.5357856559999
2023-01-17T03:54:32.371Z,987.5357856559999
2023-01-17T03:55:32.292Z,987.332602928
2023-01-17T03:56:32.362Z,987.4341942919999
2023-01-17T03:57:32.381Z,987.4341942919999
2023-01-17T03:58:32.400Z,987.332602928
2023-01-17T03:59:32.275Z,987.7389683839999
2023-01-17T04:00:32.382Z,987.2310115639999
2023-01-17T04:01:32.576Z,987.332602928
2023-01-17T04:02:33.069Z,987.4341942919999
2023-01-17T04:03:32.269Z,987.1294201999999
2023-01-17T04:04:32.406Z,987.4341942919999
2023-01-17T04:05:32.430Z,987.4341942919999
2023-01-17T04:06:32.386Z,987.2310115639999
2023-01-17T04:07:32.253Z,987.332602928
2023-01-17T04:08:32.394Z,987.2310115639999
2023-01-17T04:09:32.490Z,987.332602928
2023-01-17T04:10:32.375Z,987.332602928
2023-01-17T04:11:32.238Z,987.4341942919999
2023-01-17T04:12:32.776Z,987.2310115639999
2023-01-17T04:13:32.402Z,987.2310115639999
2023-01-17T04:14:32.420Z,987.4341942919999
2023-01-17T04:15:32.256Z,987.5357856559999
2023-01-17T04:16:32.493Z,987.4341942919999
2023-01-17T04:17:32.396Z,987.4341942919999
2023-01-17T04:18:32.405Z,987.332602928
2023-01-17T04:19:32.221Z,987.332602928
2023-01-17T04:20:32.387Z,987.4341942919999
2023-01-17T04:21:32.390Z,987.2310115639999
2023-01-17T04:22:32.380Z,987.332602928
2023-01-17T04:23:32.251Z,987.332602928
2023-01-17T04:24:32.360Z,987.332602928
2023-01-17T04:25:32.425Z,987.2310115639999
2023-01-17T04:26:32.392Z,987.4341942919999
2023-01-17T04:27:32.291Z,987.1294201999999
2023-01-17T04:28:32.399Z,987.027828836
2023-01-17T04:29:32.402Z,987.5357856559999
2023-01-17T04:30:32.404Z,987.1294201999999
2023-01-17T04:31:32.328Z,986.9262374719999
2023-01-17T04:32:33.307Z,987.2310115639999
2023-01-17T04:33:32.447Z,987.2310115639999
2023-01-17T04:34:32.393Z,987.027828836
2023-01-17T04:35:32.608Z,987.2310115639999
2023-01-17T04:36:32.403Z,987.332602928
2023-01-17T04:37:32.395Z,987.1294201999999
2023-01-17T04:38:32.379Z,987.2310115639999
2023-01-17T04:39:32.320Z,987.2310115639999
2023-01-17T04:40:32.402Z,987.1294201999999
2023-01-17T04:41:32.428Z,987.2310115639999
2023-01-17T04:42:33.138Z,987.1294201999999
2023-01-17T04:43:32.262Z,986.9262374719999
2023-01-17T04:44:32.441Z,987.2310115639999
2023-01-17T04:45:32.451Z,987.2310115639999
2023-01-17T04:46:32.379Z,987.1294201999999
2023-01-17T04:47:32.278Z,986.9262374719999
2023-01-17T04:48:32.403Z,987.027828836
2023-01-17T04:49:32.423Z,987.2310115639999
2023-01-17T04:50:32.393Z,987.1294201999999
2023-01-17T04:51:32.286Z,987.027828836
2023-01-17T04:52:32.462Z,987.1294201999999
2023-01-17T04:53:32.479Z,987.2310115639999
2023-01-17T04:54:32.398Z,987.2310115639999
2023-01-17T04:55:32.222Z,987.1294201999999
2023-01-17T04:56:32.450Z,987.027828836
2023-01-17T04:57:32.431Z,986.9262374719999
2023-01-17T04:58:32.391Z,987.1294201999999
2023-01-17T04:59:32.230Z,987.027828836
2023-01-17T05:00:32.423Z,987.2310115639999
2023-01-17T05:01:32.716Z,986.8246461079999
2023-01-17T05:02:32.786Z,987.027828836
2023-01-17T05:03:32.271Z,987.2310115639999
2023-01-17T05:04:32.415Z,987.027828836
2023-01-17T05:05:32.400Z,987.1294201999999
2023-01-17T05:06:32.394Z,987.027828836
2023-01-17T05:07:33.880Z,987.027828836
2023-01-17T05:08:32.603Z,987.027828836
2023-01-17T05:09:32.403Z,987.1294201999999
2023-01-17T05:10:32.395Z,987.332602928
2023-01-17T05:11:32.203Z,987.027828836
2023-01-17T05:12:32.430Z,987.027828836
2023-01-17T05:13:32.392Z,987.027828836
2023-01-17T05:14:32.396Z,987.2310115639999
2023-01-17T05:15:32.572Z,987.027828836
2023-01-17T05:16:32.423Z,987.1294201999999
2023-01-17T05:17:32.409Z,986.9262374719999
2023-01-17T05:18:32.385Z,987.2310115639999
2023-01-17T05:19:32.288Z,986.9262374719999
2023-01-17T05:20:32.449Z,987.027828836
2023-01-17T05:21:32.419Z,986.9262374719999
2023-01-17T05:22:32.392Z,987.027828836
2023-01-17T05:23:32.190Z,986.9262374719999
2023-01-17T05:24:32.429Z,987.1294201999999
2023-01-17T05:25:32.379Z,987.1294201999999
2023-01-17T05:26:32.413Z,987.1294201999999
2023-01-17T05:27:32.194Z,987.027828836
2023-01-17T05:28:32.404Z,987.1294201999999
2023-01-17T05:29:32.407Z,986.9262374719999
2023-01-17T05:30:32.396Z,987.1294201999999
2023-01-17T05:31:32.298Z,987.027828836
2023-01-17T05:32:32.411Z,987.1294201999999
2023-01-17T05:33:32.408Z,987.027828836
2023-01-17T05:34:32.405Z,987.1294201999999
2023-01-17T05:35:32.241Z,986.9262374719999
2023-01-17T05:36:32.406Z,986.9262374719999
2023-01-17T05:37:32.395Z,987.027828836
2023-01-17T05:38:32.381Z,987.1294201999999
2023-01-17T05:39:32.222Z,987.027828836
2023-01-17T05:40:32.428Z,987.1294201999999
2023-01-17T05:41:32.380Z,986.9262374719999
2023-01-17T05:42:32.401Z,987.027828836
2023-01-17T05:43:32.179Z,986.9262374719999
2023-01-17T05:44:32.410Z,987.027828836
2023-01-17T05:45:32.398Z,986.8246461079999
2023-01-17T05:46:32.410Z,986.8246461079999
2023-01-17T05:47:32.228Z,986.9262374719999
2023-01-17T05:48:32.405Z,986.8246461079999
2023-01-17T05:49:32.411Z,986.9262374719999
2023-01-17T05:50:32.374Z,986.8246461079999
2023-01-17T05:51:32.221Z,986.8246461079999
2023-01-17T05:52:33.250Z,987.027828836
2023-01-17T05:53:32.419Z,986.7230547440001
2023-01-17T05:54:32.587Z,986.8246461079999
2023-01-17T05:55:32.207Z,986.7230547440001
2023-01-17T05:56:32.403Z,986.8246461079999
2023-01-17T05:57:32.410Z,986.9262374719999
2023-01-17T05:58:32.412Z,986.8246461079999
2023-01-17T05:59:36.931Z,986.9262374719999
2023-01-17T06:00:32.365Z,987.027828836
2023-01-17T06:01:32.440Z,987.027828836
2023-01-17T06:02:32.583Z,986.9262374719999
2023-01-17T06:03:32.254Z,986.8246461079999
2023-01-17T06:04:32.447Z,986.9262374719999
2023-01-17T06:05:32.393Z,986.7230547440001
2023-01-17T06:06:32.464Z,987.027828836
2023-01-17T06:07:32.239Z,987.332602928
2023-01-17T06:08:32.378Z,987.2310115639999
2023-01-17T06:09:32.441Z,987.1294201999999
2023-01-17T06:10:32.440Z,987.332602928
2023-01-17T06:11:32.212Z,987.027828836
2023-01-17T06:12:32.444Z,987.332602928
2023-01-17T06:13:32.403Z,987.027828836
2023-01-17T06:14:32.387Z,987.2310115639999
2023-01-17T06:15:32.185Z,987.027828836
2023-01-17T06:16:32.400Z,986.8246461079999
2023-01-17T06:17:32.431Z,987.027828836
2023-01-17T06:18:32.416Z,987.2310115639999
2023-01-17T06:19:32.216Z,986.8246461079999
2023-01-17T06:20:32.338Z,987.027828836
2023-01-17T06:21:32.412Z,986.9262374719999
2023-01-17T06:22:32.471Z,987.2310115639999
2023-01-17T06:23:32.211Z,987.1294201999999
2023-01-17T06:24:32.367Z,987.1294201999999
2023-01-17T06:25:32.412Z,986.9262374719999
2023-01-17T06:26:32.392Z,986.9262374719999
2023-01-17T06:27:32.299Z,986.9262374719999
2023-01-17T06:28:32.379Z,987.1294201999999
2023-01-17T06:29:32.415Z,987.027828836
2023-01-17T06:30:32.436Z,986.9262374719999
2023-01-17T06:31:32.260Z,987.027828836
2023-01-17T06:32:32.466Z,986.8246461079999
2023-01-17T06:33:32.422Z,987.027828836
2023-01-17T06:34:32.380Z,987.332602928
2023-01-17T06:35:32.218Z,986.9262374719999
2023-01-17T06:36:32.357Z,987.027828836
2023-01-17T06:37:32.378Z,987.027828836
2023-01-17T06:38:32.382Z,987.2310115639999
2023-01-17T06:39:32.202Z,987.1294201999999
2023-01-17T06:40:32.363Z,986.8246461079999
2023-01-17T06:41:32.413Z,986.9262374719999
2023-01-17T06:42:33.495Z,987.1294201999999
2023-01-17T06:43:32.296Z,986.9262374719999
2023-01-17T06:44:32.374Z,987.027828836
2023-01-17T06:45:32.412Z,987.1294201999999
2023-01-17T06:46:32.452Z,987.027828836
2023-01-17T06:47:32.200Z,987.027828836
2023-01-17T06:48:32.351Z,987.027828836
2023-01-17T06:49:32.395Z,986.9262374719999
2023-01-17T06:50:32.366Z,986.7230547440001
2023-01-17T06:51:32.182Z,986.9262374719999
2023-01-17T06:52:32.354Z,987.027828836
2023-01-17T06:53:32.414Z,986.9262374719999
2023-01-17T06:54:32.395Z,987.027828836
2023-01-17T06:55:32.353Z,986.7230547440001
2023-01-17T06:56:32.383Z,986.9262374719999
2023-01-17T06:57:32.401Z,987.027828836
2023-01-17T06:58:32.360Z,986.9262374719999
2023-01-17T06:59:32.206Z,986.7230547440001
2023-01-17T07:00:32.434Z,986.9262374719999
2023-01-17T07:01:32.840Z,986.8246461079999
2023-01-17T07:02:32.665Z,986.7230547440001
2023-01-17T07:03:32.214Z,986.8246461079999
2023-01-17T07:04:32.441Z,986.62146338
2023-01-17T07:05:32.414Z,986.7230547440001
2023-01-17T07:06:32.380Z,986.4182806520001
2023-01-17T07:07:33.736Z,986.4182806520001
2023-01-17T07:08:32.405Z,986.316689288
2023-01-17T07:09:32.396Z,986.62146338
2023-01-17T07:10:32.357Z,986.4182806520001
2023-01-17T07:11:32.224Z,986.519872016
2023-01-17T07:12:32.406Z,986.519872016
2023-01-17T07:13:33.394Z,986.519872016
2023-01-17T07:14:32.349Z,986.519872016
2023-01-17T07:15:32.201Z,986.519872016
2023-01-17T07:16:32.371Z,986.316689288
2023-01-17T07:17:32.394Z,986.519872016
2023-01-17T07:18:32.370Z,986.7230547440001
2023-01-17T07:19:32.187Z,986.62146338
2023-01-17T07:20:32.370Z,986.4182806520001
2023-01-17T07:21:32.382Z,986.7230547440001
2023-01-17T07:22:32.399Z,986.8246461079999
2023-01-17T07:23:32.217Z,986.62146338
2023-01-17T07:24:32.389Z,986.62146338
2023-01-17T07:25:32.438Z,986.7230547440001
2023-01-17T07:26:32.362Z,986.62146338
2023-01-17T07:27:32.214Z,986.7230547440001
2023-01-17T07:28:32.392Z,986.62146338
2023-01-17T07:29:32.397Z,986.9262374719999
2023-01-17T07:30:32.374Z,986.7230547440001
2023-01-17T07:31:32.222Z,986.8246461079999
2023-01-17T07:32:33.411Z,986.7230547440001
2023-01-17T07:33:32.376Z,986.62146338
2023-01-17T07:34:32.375Z,986.8246461079999
2023-01-17T07:35:32.176Z,986.62146338
2023-01-17T07:36:32.360Z,986.7230547440001
2023-01-17T07:37:32.429Z,986.7230547440001
2023-01-17T07:38:32.359Z,986.7230547440001
2023-01-17T07:39:32.203Z,986.62146338
2023-01-17T07:40:38.605Z,986.8246461079999
2023-01-17T07:41:32.462Z,986.62146338
2023-01-17T07:42:32.390Z,986.62146338
2023-01-17T07:43:32.206Z,986.4182806520001
2023-01-17T07:44:32.361Z,986.4182806520001
2023-01-17T07:45:32.385Z,986.215097924
2023-01-17T07:46:32.525Z,986.4182806520001
2023-01-17T07:47:32.186Z,986.4182806520001
2023-01-17T07:48:32.372Z,986.4182806520001
2023-01-17T07:49:32.341Z,986.316689288
2023-01-17T07:50:32.405Z,986.62146338
2023-01-17T07:51:32.153Z,986.4182806520001
2023-01-17T07:52:32.681Z,986.1135065599999
2023-01-17T07:53:32.444Z,986.316689288
2023-01-17T07:54:32.374Z,986.316689288
2023-01-17T07:55:32.339Z,986.316689288
2023-01-17T07:56:32.371Z,986.316689288
2023-01-17T07:57:32.382Z,986.215097924
2023-01-17T07:58:32.367Z,986.215097924
2023-01-17T07:59:32.421Z,986.1135065599999
2023-01-17T08:00:32.373Z,986.215097924
2023-01-17T08:01:32.597Z,986.316689288
2023-01-17T08:02:32.979Z,986.215097924
2023-01-17T08:03:32.231Z,986.4182806520001
2023-01-17T08:04:32.355Z,986.215097924
2023-01-17T08:05:32.415Z,986.519872016
2023-01-17T08:06:32.379Z,986.4182806520001
2023-01-17T08:07:32.184Z,986.215097924
2023-01-17T08:08:32.405Z,986.215097924
2023-01-17T08:09:32.426Z,986.1135065599999
2023-01-17T08:10:32.413Z,986.519872016
2023-01-17T08:11:32.405Z,986.316689288
2023-01-17T08:12:32.408Z,986.316689288
2023-01-17T08:13:32.380Z,986.215097924
2023-01-17T08:14:32.347Z,986.316689288
2023-01-17T08:15:32.203Z,986.215097924
2023-01-17T08:16:32.516Z,986.316689288
2023-01-17T08:17:32.425Z,986.316689288
2023-01-17T08:18:32.364Z,986.4182806520001
2023-01-17T08:19:32.172Z,986.215097924
2023-01-17T08:20:32.368Z,986.62146338
2023-01-17T08:21:32.375Z,986.316689288
2023-01-17T08:22:32.715Z,986.1135065599999
2023-01-17T08:23:32.123Z,986.316689288
2023-01-17T08:24:32.475Z,986.316689288
2023-01-17T08:25:32.454Z,986.1135065599999
2023-01-17T08:26:32.383Z,986.316689288
2023-01-17T08:27:32.251Z,986.4182806520001
2023-01-17T08:28:32.382Z,986.215097924
2023-01-17T08:29:32.389Z,986.215097924
2023-01-17T08:30:32.366Z,986.215097924
2023-01-17T08:31:32.323Z,986.1135065599999
2023-01-17T08:32:32.608Z,986.215097924
2023-01-17T08:33:32.391Z,986.011915196
2023-01-17T08:34:32.336Z,986.1135065599999
2023-01-17T08:35:32.909Z,986.215097924
2023-01-17T08:36:32.356Z,986.316689288
2023-01-17T08:37:32.401Z,986.215097924
2023-01-17T08:38:32.391Z,986.316689288
2023-01-17T08:39:32.126Z,986.316689288
2023-01-17T08:40:32.410Z,986.316689288
2023-01-17T08:41:32.403Z,986.4182806520001
2023-01-17T08:42:32.376Z,986.215097924
2023-01-17T08:43:32.225Z,986.4182806520001
2023-01-17T08:44:32.365Z,986.316689288
2023-01-17T08:45:32.388Z,986.1135065599999
2023-01-17T08:46:32.980Z,986.215097924
2023-01-17T08:47:32.174Z,986.4182806520001
2023-01-17T08:48:32.368Z,986.011915196
2023-01-17T08:49:32.334Z,986.1135065599999
2023-01-17T08:50:32.382Z,986.215097924
2023-01-17T08:51:32.161Z,986.215097924
2023-01-17T08:52:32.946Z,986.316689288
2023-01-17T08:53:32.352Z,986.215097924
2023-01-17T08:54:32.380Z,986.215097924
2023-01-17T08:55:32.167Z,985.910323832
2023-01-17T08:56:32.376Z,986.1135065599999
2023-01-17T08:57:32.354Z,986.011915196
2023-01-17T08:58:32.402Z,986.011915196
2023-01-17T08:59:32.145Z,986.011915196
2023-01-17T09:00:32.363Z,986.011915196
2023-01-17T09:01:32.474Z,986.011915196
2023-01-17T09:02:32.794Z,986.011915196
2023-01-17T09:03:32.212Z,986.011915196
2023-01-17T09:04:32.531Z,986.215097924
2023-01-17T09:05:32.495Z,986.1135065599999
2023-01-17T09:06:32.395Z,986.011915196
2023-01-17T09:07:32.129Z,985.910323832
2023-01-17T09:08:32.389Z,986.011915196
2023-01-17T09:09:32.364Z,986.1135065599999
2023-01-17T09:10:32.398Z,986.1135065599999
2023-01-17T09:11:32.135Z,986.011915196
2023-01-17T09:12:32.770Z,986.1135065599999
2023-01-17T09:13:32.406Z,986.011915196
2023-01-17T09:14:32.460Z,985.910323832
2023-01-17T09:15:33.152Z,985.910323832
2023-01-17T09:16:32.425Z,985.910323832
2023-01-17T09:17:32.388Z,985.8087324679999
2023-01-17T09:18:32.428Z,985.707141104
2023-01-17T09:19:32.133Z,986.011915196
2023-01-17T09:20:32.348Z,985.910323832
2023-01-17T09:21:32.387Z,985.910323832
2023-01-17T09:22:32.640Z,985.707141104
2023-01-17T09:23:32.156Z,985.8087324679999
2023-01-17T09:24:32.368Z,986.011915196
2023-01-17T09:25:32.365Z,985.8087324679999
2023-01-17T09:26:32.398Z,985.707141104
2023-01-17T09:27:32.102Z,985.639413528
2023-01-17T09:28:32.340Z,985.707141104
2023-01-17T09:29:32.360Z,985.707141104
2023-01-17T09:30:32.415Z,985.707141104
2023-01-17T09:31:32.128Z,985.707141104
2023-01-17T09:32:32.768Z,985.8087324679999
2023-01-17T09:33:32.374Z,985.910323832
2023-01-17T09:34:32.364Z,985.707141104
2023-01-17T09:35:32.135Z,985.639413528
2023-01-17T09:36:32.398Z,985.8087324679999
2023-01-17T09:37:32.413Z,985.910323832
2023-01-17T09:38:32.353Z,985.707141104
2023-01-17T09:39:32.122Z,985.8087324679999
2023-01-17T09:40:32.325Z,985.707141104
2023-01-17T09:41:32.376Z,985.5378221640001
2023-01-17T09:42:33.322Z,985.639413528
2023-01-17T09:43:32.123Z,985.639413528